sensor_id;sensor_type;location;lat;lon;timestamp;P1;durP1;ratioP1;P2;durP2;ratioP2
39016;SDS011;24784;45.582;5.276;2023-09-08T00:01:55;7.88;;;3.30;;
39016;SDS011;24784;45.582;5.276;2023-09-08T00:04:21;5.30;;;3.38;;
39016;SDS011;24784;45.582;5.276;2023-09-08T00:06:47;12.70;;;3.78;;
39016;SDS011;24784;45.582;5.276;2023-09-08T00:09:12;7.78;;;3.78;;
39016;SDS011;24784;45.582;5.276;2023-09-08T00:11:38;7.55;;;3.40;;
39016;SDS011;24784;45.582;5.276;2023-09-08T00:14:04;4.05;;;3.15;;
39016;SDS011;24784;45.582;5.276;2023-09-08T00:16:30;8.13;;;3.15;;
39016;SDS011;24784;45.582;5.276;2023-09-08T00:18:56;4.15;;;3.47;;
39016;SDS011;24784;45.582;5.276;2023-09-08T00:21:23;5.13;;;3.35;;
39016;SDS011;24784;45.582;5.276;2023-09-08T00:23:50;3.95;;;2.97;;
39016;SDS011;24784;45.582;5.276;2023-09-08T00:26:16;10.63;;;2.90;;
39016;SDS011;24784;45.582;5.276;2023-09-08T00:28:41;4.50;;;3.47;;
39016;SDS011;24784;45.582;5.276;2023-09-08T00:31:07;5.32;;;3.25;;
39016;SDS011;24784;45.582;5.276;2023-09-08T00:33:33;5.80;;;2.83;;
39016;SDS011;24784;45.582;5.276;2023-09-08T00:35:58;4.70;;;3.47;;
39016;SDS011;24784;45.582;5.276;2023-09-08T00:38:24;7.32;;;3.35;;
39016;SDS011;24784;45.582;5.276;2023-09-08T00:40:51;3.58;;;3.08;;
39016;SDS011;24784;45.582;5.276;2023-09-08T00:43:16;3.97;;;2.97;;
39016;SDS011;24784;45.582;5.276;2023-09-08T00:45:42;6.78;;;3.40;;
39016;SDS011;24784;45.582;5.276;2023-09-08T00:48:09;3.90;;;3.30;;
39016;SDS011;24784;45.582;5.276;2023-09-08T00:50:38;4.43;;;2.95;;
39016;SDS011;24784;45.582;5.276;2023-09-08T00:53:04;6.75;;;3.38;;
39016;SDS011;24784;45.582;5.276;2023-09-08T00:55:30;5.25;;;2.90;;
39016;SDS011;24784;45.582;5.276;2023-09-08T00:57:57;5.75;;;3.03;;
39016;SDS011;24784;45.582;5.276;2023-09-08T01:00:24;12.65;;;3.45;;
39016;SDS011;24784;45.582;5.276;2023-09-08T01:02:50;6.75;;;3.85;;
39016;SDS011;24784;45.582;5.276;2023-09-08T01:05:15;6.85;;;3.63;;
39016;SDS011;24784;45.582;5.276;2023-09-08T01:07:41;4.32;;;3.40;;
39016;SDS011;24784;45.582;5.276;2023-09-08T01:10:08;7.50;;;3.30;;
39016;SDS011;24784;45.582;5.276;2023-09-08T01:12:35;4.82;;;3.40;;
39016;SDS011;24784;45.582;5.276;2023-09-08T01:15:01;6.85;;;3.28;;
39016;SDS011;24784;45.582;5.276;2023-09-08T01:17:27;4.20;;;3.20;;
39016;SDS011;24784;45.582;5.276;2023-09-08T01:19:56;4.65;;;3.70;;
39016;SDS011;24784;45.582;5.276;2023-09-08T01:22:30;11.60;;;4.10;;
39016;SDS011;24784;45.582;5.276;2023-09-08T01:25:23;6.70;;;3.88;;
39016;SDS011;24784;45.582;5.276;2023-09-08T01:27:52;5.43;;;3.72;;
39016;SDS011;24784;45.582;5.276;2023-09-08T01:30:18;6.28;;;3.80;;
39016;SDS011;24784;45.582;5.276;2023-09-08T01:32:46;4.53;;;3.47;;
39016;SDS011;24784;45.582;5.276;2023-09-08T01:35:12;10.35;;;3.50;;
39016;SDS011;24784;45.582;5.276;2023-09-08T01:37:42;4.72;;;3.50;;
39016;SDS011;24784;45.582;5.276;2023-09-08T01:40:10;5.47;;;3.40;;
39016;SDS011;24784;45.582;5.276;2023-09-08T01:42:36;4.93;;;3.28;;
39016;SDS011;24784;45.582;5.276;2023-09-08T01:45:03;3.55;;;3.15;;
39016;SDS011;24784;45.582;5.276;2023-09-08T01:47:29;7.68;;;3.40;;
39016;SDS011;24784;45.582;5.276;2023-09-08T01:49:55;5.78;;;3.53;;
39016;SDS011;24784;45.582;5.276;2023-09-08T01:52:21;5.05;;;3.83;;
39016;SDS011;24784;45.582;5.276;2023-09-08T01:54:46;3.55;;;3.05;;
39016;SDS011;24784;45.582;5.276;2023-09-08T01:57:12;3.05;;;2.67;;
39016;SDS011;24784;45.582;5.276;2023-09-08T01:59:38;3.65;;;3.30;;
39016;SDS011;24784;45.582;5.276;2023-09-08T02:02:04;5.53;;;3.78;;
39016;SDS011;24784;45.582;5.276;2023-09-08T02:04:29;4.57;;;3.47;;
39016;SDS011;24784;45.582;5.276;2023-09-08T02:06:55;5.60;;;3.45;;
39016;SDS011;24784;45.582;5.276;2023-09-08T02:09:21;4.07;;;3.17;;
39016;SDS011;24784;45.582;5.276;2023-09-08T02:11:47;5.07;;;3.45;;
39016;SDS011;24784;45.582;5.276;2023-09-08T02:14:12;6.80;;;3.38;;
39016;SDS011;24784;45.582;5.276;2023-09-08T02:16:38;5.60;;;3.50;;
39016;SDS011;24784;45.582;5.276;2023-09-08T02:19:04;4.65;;;3.30;;
39016;SDS011;24784;45.582;5.276;2023-09-08T02:21:30;5.18;;;3.10;;
39016;SDS011;24784;45.582;5.276;2023-09-08T02:23:56;4.38;;;3.33;;
39016;SDS011;24784;45.582;5.276;2023-09-08T02:26:21;5.45;;;3.67;;
39016;SDS011;24784;45.582;5.276;2023-09-08T02:28:47;4.07;;;3.33;;
39016;SDS011;24784;45.582;5.276;2023-09-08T02:31:13;5.25;;;3.72;;
39016;SDS011;24784;45.582;5.276;2023-09-08T02:33:38;6.57;;;3.72;;
39016;SDS011;24784;45.582;5.276;2023-09-08T02:36:04;7.13;;;3.85;;
39016;SDS011;24784;45.582;5.276;2023-09-08T02:38:31;8.65;;;3.88;;
39016;SDS011;24784;45.582;5.276;2023-09-08T02:40:57;5.53;;;3.70;;
39016;SDS011;24784;45.582;5.276;2023-09-08T02:43:23;7.38;;;3.90;;
39016;SDS011;24784;45.582;5.276;2023-09-08T02:45:49;7.55;;;3.83;;
39016;SDS011;24784;45.582;5.276;2023-09-08T02:48:15;11.90;;;3.90;;
39016;SDS011;24784;45.582;5.276;2023-09-08T02:50:41;4.60;;;4.15;;
39016;SDS011;24784;45.582;5.276;2023-09-08T02:53:08;6.25;;;4.22;;
39016;SDS011;24784;45.582;5.276;2023-09-08T02:55:34;4.90;;;3.90;;
39016;SDS011;24784;45.582;5.276;2023-09-08T02:57:59;6.60;;;4.13;;
39016;SDS011;24784;45.582;5.276;2023-09-08T03:00:25;10.80;;;4.15;;
39016;SDS011;24784;45.582;5.276;2023-09-08T03:02:51;8.05;;;3.92;;
39016;SDS011;24784;45.582;5.276;2023-09-08T03:05:16;4.80;;;3.83;;
39016;SDS011;24784;45.582;5.276;2023-09-08T03:07:42;8.10;;;4.43;;
39016;SDS011;24784;45.582;5.276;2023-09-08T03:10:08;7.45;;;4.10;;
39016;SDS011;24784;45.582;5.276;2023-09-08T03:12:34;6.68;;;4.22;;
39016;SDS011;24784;45.582;5.276;2023-09-08T03:15:00;5.78;;;4.22;;
39016;SDS011;24784;45.582;5.276;2023-09-08T03:17:29;6.28;;;4.50;;
39016;SDS011;24784;45.582;5.276;2023-09-08T03:19:54;5.32;;;3.88;;
39016;SDS011;24784;45.582;5.276;2023-09-08T03:22:20;9.35;;;4.20;;
39016;SDS011;24784;45.582;5.276;2023-09-08T03:24:46;5.32;;;3.80;;
39016;SDS011;24784;45.582;5.276;2023-09-08T03:27:11;7.40;;;3.50;;
39016;SDS011;24784;45.582;5.276;2023-09-08T03:29:37;5.43;;;3.80;;
39016;SDS011;24784;45.582;5.276;2023-09-08T03:32:03;7.60;;;3.72;;
39016;SDS011;24784;45.582;5.276;2023-09-08T03:34:29;6.65;;;3.85;;
39016;SDS011;24784;45.582;5.276;2023-09-08T03:36:54;10.27;;;3.72;;
39016;SDS011;24784;45.582;5.276;2023-09-08T03:39:20;5.97;;;3.85;;
39016;SDS011;24784;45.582;5.276;2023-09-08T03:41:46;7.05;;;3.97;;
39016;SDS011;24784;45.582;5.276;2023-09-08T03:44:11;5.45;;;4.03;;
39016;SDS011;24784;45.582;5.276;2023-09-08T03:46:37;7.00;;;3.80;;
39016;SDS011;24784;45.582;5.276;2023-09-08T03:49:03;6.60;;;4.65;;
39016;SDS011;24784;45.582;5.276;2023-09-08T03:51:28;5.75;;;4.25;;
39016;SDS011;24784;45.582;5.276;2023-09-08T03:53:54;6.32;;;3.53;;
39016;SDS011;24784;45.582;5.276;2023-09-08T03:56:20;4.70;;;3.55;;
39016;SDS011;24784;45.582;5.276;2023-09-08T03:58:46;8.18;;;4.13;;
39016;SDS011;24784;45.582;5.276;2023-09-08T04:01:12;12.13;;;4.43;;
39016;SDS011;24784;45.582;5.276;2023-09-08T04:03:38;5.70;;;4.25;;
39016;SDS011;24784;45.582;5.276;2023-09-08T04:06:03;7.88;;;4.07;;
39016;SDS011;24784;45.582;5.276;2023-09-08T04:08:29;5.95;;;4.10;;
39016;SDS011;24784;45.582;5.276;2023-09-08T04:10:55;8.13;;;3.83;;
39016;SDS011;24784;45.582;5.276;2023-09-08T04:13:20;5.93;;;4.38;;
39016;SDS011;24784;45.582;5.276;2023-09-08T04:15:46;6.95;;;4.20;;
39016;SDS011;24784;45.582;5.276;2023-09-08T04:18:12;8.38;;;4.40;;
39016;SDS011;24784;45.582;5.276;2023-09-08T04:20:37;8.73;;;5.00;;
39016;SDS011;24784;45.582;5.276;2023-09-08T04:23:04;8.45;;;4.78;;
39016;SDS011;24784;45.582;5.276;2023-09-08T04:25:30;10.90;;;6.32;;
39016;SDS011;24784;45.582;5.276;2023-09-08T04:27:55;7.78;;;3.85;;
39016;SDS011;24784;45.582;5.276;2023-09-08T04:30:21;5.97;;;4.38;;
39016;SDS011;24784;45.582;5.276;2023-09-08T04:32:47;6.22;;;4.40;;
39016;SDS011;24784;45.582;5.276;2023-09-08T04:35:13;6.55;;;4.50;;
39016;SDS011;24784;45.582;5.276;2023-09-08T04:37:38;9.15;;;4.20;;
39016;SDS011;24784;45.582;5.276;2023-09-08T04:40:05;7.35;;;4.32;;
39016;SDS011;24784;45.582;5.276;2023-09-08T04:42:32;9.25;;;4.15;;
39016;SDS011;24784;45.582;5.276;2023-09-08T04:44:58;8.52;;;4.00;;
39016;SDS011;24784;45.582;5.276;2023-09-08T04:47:23;5.07;;;4.20;;
39016;SDS011;24784;45.582;5.276;2023-09-08T04:49:49;6.85;;;4.13;;
39016;SDS011;24784;45.582;5.276;2023-09-08T04:52:15;5.93;;;4.30;;
39016;SDS011;24784;45.582;5.276;2023-09-08T04:54:40;9.25;;;4.53;;
39016;SDS011;24784;45.582;5.276;2023-09-08T04:57:06;11.43;;;4.15;;
39016;SDS011;24784;45.582;5.276;2023-09-08T04:59:32;6.43;;;4.47;;
39016;SDS011;24784;45.582;5.276;2023-09-08T05:01:57;8.57;;;4.30;;
39016;SDS011;24784;45.582;5.276;2023-09-08T05:04:24;6.28;;;4.30;;
39016;SDS011;24784;45.582;5.276;2023-09-08T05:06:49;8.70;;;4.50;;
39016;SDS011;24784;45.582;5.276;2023-09-08T05:09:15;8.20;;;4.55;;
39016;SDS011;24784;45.582;5.276;2023-09-08T05:11:41;7.70;;;4.38;;
39016;SDS011;24784;45.582;5.276;2023-09-08T05:14:06;7.13;;;4.30;;
39016;SDS011;24784;45.582;5.276;2023-09-08T05:16:32;8.63;;;4.55;;
39016;SDS011;24784;45.582;5.276;2023-09-08T05:19:03;6.57;;;4.60;;
39016;SDS011;24784;45.582;5.276;2023-09-08T05:21:30;7.32;;;4.95;;
39016;SDS011;24784;45.582;5.276;2023-09-08T05:23:56;8.50;;;4.53;;
39016;SDS011;24784;45.582;5.276;2023-09-08T05:26:22;7.10;;;4.85;;
39016;SDS011;24784;45.582;5.276;2023-09-08T05:28:48;7.88;;;4.75;;
39016;SDS011;24784;45.582;5.276;2023-09-08T05:31:13;7.45;;;4.28;;
39016;SDS011;24784;45.582;5.276;2023-09-08T05:33:39;12.35;;;4.53;;
39016;SDS011;24784;45.582;5.276;2023-09-08T05:36:05;8.00;;;4.28;;
39016;SDS011;24784;45.582;5.276;2023-09-08T05:38:30;9.45;;;4.80;;
39016;SDS011;24784;45.582;5.276;2023-09-08T05:40:56;15.20;;;5.78;;
39016;SDS011;24784;45.582;5.276;2023-09-08T05:43:23;12.35;;;5.18;;
39016;SDS011;24784;45.582;5.276;2023-09-08T05:45:50;9.38;;;4.63;;
39016;SDS011;24784;45.582;5.276;2023-09-08T05:48:15;7.50;;;4.43;;
39016;SDS011;24784;45.582;5.276;2023-09-08T05:50:41;11.75;;;4.60;;
39016;SDS011;24784;45.582;5.276;2023-09-08T05:53:07;13.15;;;4.57;;
39016;SDS011;24784;45.582;5.276;2023-09-08T05:55:33;7.32;;;4.60;;
39016;SDS011;24784;45.582;5.276;2023-09-08T05:57:59;11.85;;;4.57;;
39016;SDS011;24784;45.582;5.276;2023-09-08T06:00:24;8.65;;;5.28;;
39016;SDS011;24784;45.582;5.276;2023-09-08T06:02:51;11.15;;;5.20;;
39016;SDS011;24784;45.582;5.276;2023-09-08T06:05:17;10.98;;;5.13;;
39016;SDS011;24784;45.582;5.276;2023-09-08T06:07:43;6.93;;;4.45;;
39016;SDS011;24784;45.582;5.276;2023-09-08T06:10:08;9.63;;;5.00;;
39016;SDS011;24784;45.582;5.276;2023-09-08T06:12:35;6.32;;;4.50;;
39016;SDS011;24784;45.582;5.276;2023-09-08T06:15:03;6.80;;;4.68;;
39016;SDS011;24784;45.582;5.276;2023-09-08T06:17:30;8.93;;;4.82;;
39016;SDS011;24784;45.582;5.276;2023-09-08T06:19:55;11.98;;;5.32;;
39016;SDS011;24784;45.582;5.276;2023-09-08T06:22:24;10.98;;;4.95;;
39016;SDS011;24784;45.582;5.276;2023-09-08T06:24:49;5.80;;;4.28;;
39016;SDS011;24784;45.582;5.276;2023-09-08T06:27:15;8.90;;;5.70;;
39016;SDS011;24784;45.582;5.276;2023-09-08T06:29:41;9.50;;;5.22;;
39016;SDS011;24784;45.582;5.276;2023-09-08T06:32:08;10.27;;;5.28;;
39016;SDS011;24784;45.582;5.276;2023-09-08T06:34:34;8.23;;;5.22;;
39016;SDS011;24784;45.582;5.276;2023-09-08T06:37:01;14.35;;;6.00;;
39016;SDS011;24784;45.582;5.276;2023-09-08T06:39:27;9.93;;;5.35;;
39016;SDS011;24784;45.582;5.276;2023-09-08T06:41:53;9.68;;;5.28;;
39016;SDS011;24784;45.582;5.276;2023-09-08T06:44:22;13.52;;;5.20;;
39016;SDS011;24784;45.582;5.276;2023-09-08T06:46:47;12.52;;;5.63;;
39016;SDS011;24784;45.582;5.276;2023-09-08T06:49:13;11.55;;;5.50;;
39016;SDS011;24784;45.582;5.276;2023-09-08T06:51:39;13.07;;;5.70;;
39016;SDS011;24784;45.582;5.276;2023-09-08T06:54:05;13.10;;;5.97;;
39016;SDS011;24784;45.582;5.276;2023-09-08T06:56:30;10.10;;;6.20;;
39016;SDS011;24784;45.582;5.276;2023-09-08T06:58:56;7.00;;;6.15;;
39016;SDS011;24784;45.582;5.276;2023-09-08T07:01:25;10.55;;;4.97;;
39016;SDS011;24784;45.582;5.276;2023-09-08T07:03:51;8.60;;;5.13;;
39016;SDS011;24784;45.582;5.276;2023-09-08T07:06:16;13.38;;;5.38;;
39016;SDS011;24784;45.582;5.276;2023-09-08T07:08:42;11.57;;;5.50;;
39016;SDS011;24784;45.582;5.276;2023-09-08T07:11:08;14.35;;;5.78;;
39016;SDS011;24784;45.582;5.276;2023-09-08T07:13:34;11.27;;;5.72;;
39016;SDS011;24784;45.582;5.276;2023-09-08T07:15:59;11.70;;;5.63;;
39016;SDS011;24784;45.582;5.276;2023-09-08T07:18:25;8.93;;;5.32;;
39016;SDS011;24784;45.582;5.276;2023-09-08T07:20:51;6.93;;;4.97;;
39016;SDS011;24784;45.582;5.276;2023-09-08T07:23:16;10.27;;;6.65;;
39016;SDS011;24784;45.582;5.276;2023-09-08T07:25:48;11.32;;;5.53;;
39016;SDS011;24784;45.582;5.276;2023-09-08T07:28:14;12.32;;;5.78;;
39016;SDS011;24784;45.582;5.276;2023-09-08T07:30:41;11.05;;;5.22;;
39016;SDS011;24784;45.582;5.276;2023-09-08T07:33:07;14.27;;;5.20;;
39016;SDS011;24784;45.582;5.276;2023-09-08T07:35:32;10.57;;;5.70;;
39016;SDS011;24784;45.582;5.276;2023-09-08T07:38:02;11.50;;;5.72;;
39016;SDS011;24784;45.582;5.276;2023-09-08T07:40:28;18.58;;;5.50;;
39016;SDS011;24784;45.582;5.276;2023-09-08T07:42:53;10.13;;;5.40;;
39016;SDS011;24784;45.582;5.276;2023-09-08T07:45:19;11.05;;;6.03;;
39016;SDS011;24784;45.582;5.276;2023-09-08T07:47:45;11.57;;;5.60;;
39016;SDS011;24784;45.582;5.276;2023-09-08T07:52:46;10.15;;;5.55;;
39016;SDS011;24784;45.582;5.276;2023-09-08T07:55:13;10.50;;;5.82;;
39016;SDS011;24784;45.582;5.276;2023-09-08T07:57:40;18.00;;;5.95;;
39016;SDS011;24784;45.582;5.276;2023-09-08T08:00:07;16.40;;;5.20;;
39016;SDS011;24784;45.582;5.276;2023-09-08T08:02:36;12.20;;;6.10;;
39016;SDS011;24784;45.582;5.276;2023-09-08T08:05:02;11.88;;;6.20;;
39016;SDS011;24784;45.582;5.276;2023-09-08T08:07:27;14.43;;;5.68;;
39016;SDS011;24784;45.582;5.276;2023-09-08T08:09:55;9.10;;;5.20;;
39016;SDS011;24784;45.582;5.276;2023-09-08T08:12:20;13.00;;;5.10;;
39016;SDS011;24784;45.582;5.276;2023-09-08T08:14:46;10.63;;;5.13;;
39016;SDS011;24784;45.582;5.276;2023-09-08T08:17:12;7.38;;;4.63;;
39016;SDS011;24784;45.582;5.276;2023-09-08T08:19:38;15.73;;;5.70;;
39016;SDS011;24784;45.582;5.276;2023-09-08T08:22:03;9.77;;;5.43;;
39016;SDS011;24784;45.582;5.276;2023-09-08T08:24:29;9.32;;;4.95;;
39016;SDS011;24784;45.582;5.276;2023-09-08T08:26:54;13.38;;;5.30;;
39016;SDS011;24784;45.582;5.276;2023-09-08T08:29:20;12.43;;;5.32;;
39016;SDS011;24784;45.582;5.276;2023-09-08T08:31:46;12.88;;;4.93;;
39016;SDS011;24784;45.582;5.276;2023-09-08T08:34:11;8.45;;;4.88;;
39016;SDS011;24784;45.582;5.276;2023-09-08T08:36:37;6.40;;;4.70;;
39016;SDS011;24784;45.582;5.276;2023-09-08T08:39:03;10.98;;;4.75;;
39016;SDS011;24784;45.582;5.276;2023-09-08T08:41:30;7.32;;;4.38;;
39016;SDS011;24784;45.582;5.276;2023-09-08T08:43:56;12.77;;;5.38;;
39016;SDS011;24784;45.582;5.276;2023-09-08T08:46:23;8.25;;;4.65;;
39016;SDS011;24784;45.582;5.276;2023-09-08T08:48:50;7.75;;;4.45;;
39016;SDS011;24784;45.582;5.276;2023-09-08T08:51:19;14.18;;;4.68;;
39016;SDS011;24784;45.582;5.276;2023-09-08T08:53:48;4.90;;;4.05;;
39016;SDS011;24784;45.582;5.276;2023-09-08T08:56:14;6.65;;;3.90;;
39016;SDS011;24784;45.582;5.276;2023-09-08T08:58:40;11.23;;;4.43;;
39016;SDS011;24784;45.582;5.276;2023-09-08T09:01:07;17.80;;;4.65;;
39016;SDS011;24784;45.582;5.276;2023-09-08T09:03:35;11.50;;;4.93;;
39016;SDS011;24784;45.582;5.276;2023-09-08T09:06:03;10.68;;;4.55;;
39016;SDS011;24784;45.582;5.276;2023-09-08T09:08:29;9.52;;;4.60;;
39016;SDS011;24784;45.582;5.276;2023-09-08T09:10:56;8.98;;;3.42;;
39016;SDS011;24784;45.582;5.276;2023-09-08T09:13:22;5.00;;;3.45;;
39016;SDS011;24784;45.582;5.276;2023-09-08T09:15:48;5.25;;;3.50;;
39016;SDS011;24784;45.582;5.276;2023-09-08T09:18:15;4.40;;;3.20;;
39016;SDS011;24784;45.582;5.276;2023-09-08T09:20:41;10.73;;;3.60;;
39016;SDS011;24784;45.582;5.276;2023-09-08T09:23:26;5.72;;;3.38;;
39016;SDS011;24784;45.582;5.276;2023-09-08T09:25:54;4.43;;;3.42;;
39016;SDS011;24784;45.582;5.276;2023-09-08T09:28:19;4.13;;;3.20;;
39016;SDS011;24784;45.582;5.276;2023-09-08T09:30:46;6.00;;;2.85;;
39016;SDS011;24784;45.582;5.276;2023-09-08T09:33:13;3.70;;;3.08;;
39016;SDS011;24784;45.582;5.276;2023-09-08T09:35:49;6.38;;;3.20;;
39016;SDS011;24784;45.582;5.276;2023-09-08T09:38:19;11.07;;;3.47;;
39016;SDS011;24784;45.582;5.276;2023-09-08T09:40:46;6.90;;;3.53;;
39016;SDS011;24784;45.582;5.276;2023-09-08T09:43:13;6.35;;;3.38;;
39016;SDS011;24784;45.582;5.276;2023-09-08T09:45:45;4.30;;;3.45;;
39016;SDS011;24784;45.582;5.276;2023-09-08T09:48:11;8.20;;;3.00;;
39016;SDS011;24784;45.582;5.276;2023-09-08T09:50:41;4.57;;;3.38;;
39016;SDS011;24784;45.582;5.276;2023-09-08T09:53:14;4.47;;;2.90;;
39016;SDS011;24784;45.582;5.276;2023-09-08T09:55:42;4.50;;;3.20;;
39016;SDS011;24784;45.582;5.276;2023-09-08T09:58:09;6.93;;;3.20;;
39016;SDS011;24784;45.582;5.276;2023-09-08T10:00:35;10.45;;;3.38;;
39016;SDS011;24784;45.582;5.276;2023-09-08T10:03:03;3.67;;;3.00;;
39016;SDS011;24784;45.582;5.276;2023-09-08T10:05:29;5.05;;;3.28;;
39016;SDS011;24784;45.582;5.276;2023-09-08T10:07:55;5.95;;;3.42;;
39016;SDS011;24784;45.582;5.276;2023-09-08T10:10:21;7.25;;;3.50;;
39016;SDS011;24784;45.582;5.276;2023-09-08T10:12:54;4.25;;;2.92;;
39016;SDS011;24784;45.582;5.276;2023-09-08T10:15:22;5.07;;;3.25;;
39016;SDS011;24784;45.582;5.276;2023-09-08T10:17:53;3.80;;;3.28;;
39016;SDS011;24784;45.582;5.276;2023-09-08T10:20:24;8.70;;;2.83;;
39016;SDS011;24784;45.582;5.276;2023-09-08T10:23:01;5.00;;;3.20;;
39016;SDS011;24784;45.582;5.276;2023-09-08T10:25:59;3.97;;;2.88;;
39016;SDS011;24784;45.582;5.276;2023-09-08T10:28:28;5.38;;;3.00;;
39016;SDS011;24784;45.582;5.276;2023-09-08T10:30:56;4.80;;;3.08;;
39016;SDS011;24784;45.582;5.276;2023-09-08T10:33:22;4.65;;;3.08;;
39016;SDS011;24784;45.582;5.276;2023-09-08T10:35:49;5.30;;;2.72;;
39016;SDS011;24784;45.582;5.276;2023-09-08T10:38:25;3.80;;;3.20;;
39016;SDS011;24784;45.582;5.276;2023-09-08T10:43:39;5.05;;;2.97;;
39016;SDS011;24784;45.582;5.276;2023-09-08T10:46:09;5.78;;;3.15;;
39016;SDS011;24784;45.582;5.276;2023-09-08T10:48:41;4.32;;;2.90;;
39016;SDS011;24784;45.582;5.276;2023-09-08T10:51:12;5.40;;;3.83;;
39016;SDS011;24784;45.582;5.276;2023-09-08T10:53:39;5.22;;;3.85;;
39016;SDS011;24784;45.582;5.276;2023-09-08T10:56:05;5.43;;;3.88;;
39016;SDS011;24784;45.582;5.276;2023-09-08T10:58:34;5.13;;;3.03;;
39016;SDS011;24784;45.582;5.276;2023-09-08T11:01:08;4.43;;;3.13;;
39016;SDS011;24784;45.582;5.276;2023-09-08T11:06:07;4.60;;;3.40;;
39016;SDS011;24784;45.582;5.276;2023-09-08T11:08:34;6.38;;;3.17;;
39016;SDS011;24784;45.582;5.276;2023-09-08T11:11:06;6.18;;;3.63;;
39016;SDS011;24784;45.582;5.276;2023-09-08T11:13:32;8.77;;;3.30;;
39016;SDS011;24784;45.582;5.276;2023-09-08T11:15:58;5.05;;;3.22;;
39016;SDS011;24784;45.582;5.276;2023-09-08T11:18:27;4.85;;;3.38;;
39016;SDS011;24784;45.582;5.276;2023-09-08T11:20:53;4.75;;;3.30;;
39016;SDS011;24784;45.582;5.276;2023-09-08T11:23:19;9.48;;;2.80;;
39016;SDS011;24784;45.582;5.276;2023-09-08T11:25:46;4.35;;;3.10;;
39016;SDS011;24784;45.582;5.276;2023-09-08T11:28:11;6.45;;;3.28;;
39016;SDS011;24784;45.582;5.276;2023-09-08T11:30:38;5.35;;;2.67;;
39016;SDS011;24784;45.582;5.276;2023-09-08T11:33:13;4.38;;;2.88;;
39016;SDS011;24784;45.582;5.276;2023-09-08T11:35:45;8.80;;;3.08;;
39016;SDS011;24784;45.582;5.276;2023-09-08T11:38:11;6.78;;;3.25;;
39016;SDS011;24784;45.582;5.276;2023-09-08T11:40:37;5.20;;;2.67;;
39016;SDS011;24784;45.582;5.276;2023-09-08T11:43:03;6.00;;;3.03;;
39016;SDS011;24784;45.582;5.276;2023-09-08T11:45:30;4.80;;;3.17;;
39016;SDS011;24784;45.582;5.276;2023-09-08T11:47:58;4.97;;;3.58;;
39016;SDS011;24784;45.582;5.276;2023-09-08T11:50:24;12.65;;;3.25;;
39016;SDS011;24784;45.582;5.276;2023-09-08T11:52:50;3.10;;;2.80;;
39016;SDS011;24784;45.582;5.276;2023-09-08T11:55:18;3.63;;;2.75;;
39016;SDS011;24784;45.582;5.276;2023-09-08T11:57:48;4.03;;;3.00;;
39016;SDS011;24784;45.582;5.276;2023-09-08T12:00:17;6.95;;;2.92;;
39016;SDS011;24784;45.582;5.276;2023-09-08T12:02:44;2.90;;;2.60;;
39016;SDS011;24784;45.582;5.276;2023-09-08T12:05:20;6.18;;;2.90;;
39016;SDS011;24784;45.582;5.276;2023-09-08T12:07:53;4.13;;;2.88;;
39016;SDS011;24784;45.582;5.276;2023-09-08T12:10:21;4.15;;;2.92;;
39016;SDS011;24784;45.582;5.276;2023-09-08T12:12:51;6.03;;;3.30;;
39016;SDS011;24784;45.582;5.276;2023-09-08T12:18:05;10.60;;;3.25;;
39016;SDS011;24784;45.582;5.276;2023-09-08T12:20:40;5.18;;;2.90;;
39016;SDS011;24784;45.582;5.276;2023-09-08T12:23:15;6.32;;;3.17;;
39016;SDS011;24784;45.582;5.276;2023-09-08T12:25:50;4.00;;;3.25;;
39016;SDS011;24784;45.582;5.276;2023-09-08T12:28:17;5.55;;;3.10;;
39016;SDS011;24784;45.582;5.276;2023-09-08T12:30:44;8.95;;;3.25;;
39016;SDS011;24784;45.582;5.276;2023-09-08T12:33:10;7.05;;;3.10;;
39016;SDS011;24784;45.582;5.276;2023-09-08T12:35:38;4.32;;;3.15;;
39016;SDS011;24784;45.582;5.276;2023-09-08T12:38:04;3.10;;;2.78;;
39016;SDS011;24784;45.582;5.276;2023-09-08T12:40:32;3.72;;;2.90;;
39016;SDS011;24784;45.582;5.276;2023-09-08T12:43:00;7.13;;;3.08;;
39016;SDS011;24784;45.582;5.276;2023-09-08T12:45:26;6.93;;;3.25;;
39016;SDS011;24784;45.582;5.276;2023-09-08T12:47:52;3.03;;;2.72;;
39016;SDS011;24784;45.582;5.276;2023-09-08T12:50:19;6.65;;;3.13;;
39016;SDS011;24784;45.582;5.276;2023-09-08T12:52:45;5.65;;;3.30;;
39016;SDS011;24784;45.582;5.276;2023-09-08T12:55:11;3.58;;;2.70;;
39016;SDS011;24784;45.582;5.276;2023-09-08T12:57:37;3.53;;;3.08;;
39016;SDS011;24784;45.582;5.276;2023-09-08T13:00:03;5.45;;;3.10;;
39016;SDS011;24784;45.582;5.276;2023-09-08T13:02:29;4.45;;;3.13;;
39016;SDS011;24784;45.582;5.276;2023-09-08T13:04:55;3.45;;;3.15;;
39016;SDS011;24784;45.582;5.276;2023-09-08T13:07:21;3.35;;;3.03;;
39016;SDS011;24784;45.582;5.276;2023-09-08T13:09:46;5.03;;;2.80;;
39016;SDS011;24784;45.582;5.276;2023-09-08T13:12:12;4.85;;;3.33;;
39016;SDS011;24784;45.582;5.276;2023-09-08T13:14:41;4.10;;;2.88;;
39016;SDS011;24784;45.582;5.276;2023-09-08T13:17:10;13.23;;;4.05;;
39016;SDS011;24784;45.582;5.276;2023-09-08T13:19:36;5.80;;;3.25;;
39016;SDS011;24784;45.582;5.276;2023-09-08T13:22:03;5.30;;;3.08;;
39016;SDS011;24784;45.582;5.276;2023-09-08T13:24:29;10.18;;;3.95;;
39016;SDS011;24784;45.582;5.276;2023-09-08T13:26:55;3.95;;;3.38;;
39016;SDS011;24784;45.582;5.276;2023-09-08T13:29:21;9.38;;;3.15;;
39016;SDS011;24784;45.582;5.276;2023-09-08T13:31:47;9.50;;;3.10;;
39016;SDS011;24784;45.582;5.276;2023-09-08T13:34:13;4.82;;;3.53;;
39016;SDS011;24784;45.582;5.276;2023-09-08T13:36:38;3.92;;;3.22;;
39016;SDS011;24784;45.582;5.276;2023-09-08T13:39:04;4.18;;;3.15;;
39016;SDS011;24784;45.582;5.276;2023-09-08T13:44:19;7.18;;;3.63;;
39016;SDS011;24784;45.582;5.276;2023-09-08T13:46:46;5.78;;;3.40;;
39016;SDS011;24784;45.582;5.276;2023-09-08T13:49:13;10.35;;;3.70;;
39016;SDS011;24784;45.582;5.276;2023-09-08T13:51:39;14.82;;;3.58;;
39016;SDS011;24784;45.582;5.276;2023-09-08T13:54:06;5.18;;;3.17;;
39016;SDS011;24784;45.582;5.276;2023-09-08T13:56:32;5.82;;;2.95;;
39016;SDS011;24784;45.582;5.276;2023-09-08T13:58:58;4.97;;;3.58;;
39016;SDS011;24784;45.582;5.276;2023-09-08T14:01:25;4.57;;;3.28;;
39016;SDS011;24784;45.582;5.276;2023-09-08T14:03:53;4.50;;;3.63;;
39016;SDS011;24784;45.582;5.276;2023-09-08T14:06:18;5.10;;;3.35;;
39016;SDS011;24784;45.582;5.276;2023-09-08T14:08:44;6.68;;;3.80;;
39016;SDS011;24784;45.582;5.276;2023-09-08T14:11:10;5.10;;;3.50;;
39016;SDS011;24784;45.582;5.276;2023-09-08T14:13:37;4.15;;;3.38;;
39016;SDS011;24784;45.582;5.276;2023-09-08T14:16:03;4.30;;;3.20;;
39016;SDS011;24784;45.582;5.276;2023-09-08T14:18:29;4.35;;;3.55;;
39016;SDS011;24784;45.582;5.276;2023-09-08T14:20:55;9.30;;;3.95;;
39016;SDS011;24784;45.582;5.276;2023-09-08T14:23:21;6.95;;;3.17;;
39016;SDS011;24784;45.582;5.276;2023-09-08T14:25:46;6.80;;;3.15;;
39016;SDS011;24784;45.582;5.276;2023-09-08T14:28:12;7.13;;;3.38;;
39016;SDS011;24784;45.582;5.276;2023-09-08T14:30:38;4.35;;;3.28;;
39016;SDS011;24784;45.582;5.276;2023-09-08T14:33:05;10.90;;;3.63;;
39016;SDS011;24784;45.582;5.276;2023-09-08T14:35:32;6.78;;;3.65;;
39016;SDS011;24784;45.582;5.276;2023-09-08T14:37:58;7.97;;;3.40;;
39016;SDS011;24784;45.582;5.276;2023-09-08T14:40:24;7.45;;;3.58;;
39016;SDS011;24784;45.582;5.276;2023-09-08T14:42:50;5.32;;;3.90;;
39016;SDS011;24784;45.582;5.276;2023-09-08T14:45:15;7.53;;;4.00;;
39016;SDS011;24784;45.582;5.276;2023-09-08T14:47:41;4.95;;;4.00;;
39016;SDS011;24784;45.582;5.276;2023-09-08T14:50:07;6.40;;;3.85;;
39016;SDS011;24784;45.582;5.276;2023-09-08T14:52:33;4.72;;;3.53;;
39016;SDS011;24784;45.582;5.276;2023-09-08T14:54:58;4.90;;;3.28;;
39016;SDS011;24784;45.582;5.276;2023-09-08T14:57:24;5.57;;;3.38;;